Forside
METAR-TAF:

METAR-TAF

Lufthavne :

Olieplatform Norsk Hydro

Oseberg, Norge

Breddekreds: 60-29-29N, længdekreds: 2-49-32E, højde: 158 m

Aktuelle vejr

Denne rapport blev lavet for 39 minutter siden, kl. 02:20 UTC
Vind 9 kt fra vestnordvest
Temperatur 8°C
Fugtighed 87%
Tryk 1027 hPa
Sigt 10 km eller mere
Overskyet i en højde af 1500 ft

METAR: ENOA 250220Z 29009KT 9999 OVC015 08/06 Q1027 W///S4

Tid: 04:59 (02:59 UTC)

Vejrudsigter

Foreløbig gælder fra 25 på 00 UTC til 25 på 24 UTC
Vind 18 kt fra nordvest
Sigt 10 km eller mere
Spredte skyer i en højde af 1000 ft
Brudte skyer i en højde af 1500 ft
Midlertidig
fra 25 på 00 UTC til 25 på 12 UTC
Sigt: 4000 m
Brudte skyer i en højde af 600 ft
dis
ændring
fra 25 på 01 UTC til 25 på 03 UTC
Vind 8 kt fra vest
ændring
fra 25 på 06 UTC til 25 på 09 UTC
Vind 15 kt fra syd

TAF: ENOA 2500/2524 32018KT 9999 SCT010 BKN015 TEMPO 2500/2512 4000 BR BKN006 BECMG 2501/2503 27008KT BECMG 2506/2509 19015KT

Vejrobservationer og prognoser fra mere end 4000 lufthavne (METAR og TAF).

De gule og røde prikker repræsenterer de meteorologiske stationer.

Flyt musen over at se navnet på stationen.

Så klik over at se vejr observationer og prognoser.

At skifte det kort: Klik på de grønne knapper med et sort kors for at zoome ind; på den grønne knap med en bindestreg for at zoome ud; eller på de grønne pile for tilstødende kort.


METAR-TAF: